createdAt,value
2023-02-16T00:00:32.816Z,101237.84
2023-02-16T00:02:59.957Z,101239.34
2023-02-16T00:05:32.990Z,101233.59
2023-02-16T00:08:01.451Z,101230.84
2023-02-16T00:10:34.914Z,101229.28
2023-02-16T00:13:47.597Z,101232.50
2023-02-16T00:16:22.393Z,101225.66
2023-02-16T00:18:51.009Z,101230.22
2023-02-16T00:21:18.880Z,101227.63
2023-02-16T00:23:48.212Z,101227.19
2023-02-16T00:26:25.721Z,101232.66
2023-02-16T00:29:00.743Z,101230.38
2023-02-16T00:31:32.557Z,101232.34
2023-02-16T00:34:35.670Z,101225.22
2023-02-16T00:37:10.600Z,101227.47
2023-02-16T00:39:40.500Z,101229.03
2023-02-16T00:42:29.004Z,101226.41
2023-02-16T00:44:57.915Z,101217.75
2023-02-16T00:47:42.919Z,101219.28
2023-02-16T00:50:29.085Z,101226.88
2023-02-16T00:52:58.470Z,101217.41
2023-02-16T00:55:33.624Z,101219.22
2023-02-16T00:58:30.774Z,101217.72
2023-02-16T01:01:11.300Z,101224.13
2023-02-16T01:03:38.995Z,101225.63
2023-02-16T01:06:24.993Z,101234.78
2023-02-16T01:09:14.382Z,101226.25
2023-02-16T01:11:41.661Z,101226.56
2023-02-16T01:14:12.670Z,101224.13
2023-02-16T01:16:43.208Z,101227.91
2023-02-16T01:19:14.047Z,101225.31
2023-02-16T01:21:41.488Z,101229.56
2023-02-16T01:24:08.797Z,101217.97
2023-02-16T01:26:44.553Z,101220.09
2023-02-16T01:29:21.372Z,101213.69
2023-02-16T01:31:50.573Z,101217.66
2023-02-16T01:34:17.756Z,101217.34
2023-02-16T01:36:48.266Z,101206.41
2023-02-16T01:39:21.113Z,101209.44
2023-02-16T01:42:41.451Z,101208.25
2023-02-16T01:45:29.651Z,101203.50
2023-02-16T01:48:09.821Z,101203.81
2023-02-16T01:51:04.872Z,101199.50
2023-02-16T01:53:47.159Z,101209.38
2023-02-16T01:56:47.131Z,101202.38
2023-02-16T01:59:33.297Z,101192.97
2023-02-16T02:02:12.486Z,101193.28
2023-02-16T02:05:27.136Z,101194.63
2023-02-16T02:08:45.339Z,101184.16
2023-02-16T02:11:27.330Z,101187.44
2023-02-16T02:14:09.896Z,101184.38
2023-02-16T02:16:37.357Z,101180.38
2023-02-16T02:19:04.772Z,101185.53
2023-02-16T02:22:41.396Z,101173.84
2023-02-16T02:25:46.761Z,101174.06
2023-02-16T02:28:29.463Z,101178.72
2023-02-16T02:31:41.997Z,101174.50
2023-02-16T02:35:08.051Z,101175.72
2023-02-16T02:38:09.998Z,101173.38
2023-02-16T02:41:45.598Z,101178.84
2023-02-16T02:44:18.849Z,101178.56
2023-02-16T02:46:46.962Z,101181.00
2023-02-16T02:49:15.061Z,101173.72
2023-02-16T02:51:43.746Z,101169.25
2023-02-16T02:54:47.240Z,101174.56
2023-02-16T02:58:04.728Z,101172.47
2023-02-16T03:00:41.182Z,101172.47
2023-02-16T03:03:44.974Z,101168.25
2023-02-16T03:06:23.813Z,101178.25
2023-02-16T03:09:11.260Z,101182.13
2023-02-16T03:11:57.121Z,101191.97
2023-02-16T03:14:59.078Z,101183.00
2023-02-16T03:17:56.369Z,101182.03
2023-02-16T03:20:42.439Z,101180.97
2023-02-16T03:23:28.495Z,101174.19
2023-02-16T03:26:14.545Z,101183.09
2023-02-16T03:29:03.364Z,101180.53
2023-02-16T03:31:38.929Z,101177.78
2023-02-16T03:34:07.269Z,101185.81
2023-02-16T03:36:39.256Z,101181.06
2023-02-16T03:39:07.920Z,101180.72
2023-02-16T03:41:43.583Z,101177.41
2023-02-16T03:44:11.175Z,101179.50
2023-02-16T03:46:38.396Z,101178.91
2023-02-16T03:49:05.635Z,101172.34
2023-02-16T03:51:32.769Z,101173.09
2023-02-16T03:53:59.992Z,101171.44
2023-02-16T03:56:27.322Z,101166.13
2023-02-16T03:58:54.752Z,101172.34
2023-02-16T04:01:21.896Z,101174.03
2023-02-16T04:03:49.281Z,101175.25
2023-02-16T04:06:16.516Z,101176.78
2023-02-16T04:08:43.832Z,101168.88
2023-02-16T04:11:29.920Z,101175.41
2023-02-16T04:13:57.054Z,101171.63
2023-02-16T04:16:24.331Z,101176.13
2023-02-16T04:18:51.634Z,101172.75
2023-02-16T04:21:18.766Z,101183.28
2023-02-16T04:23:46.001Z,101182.31
2023-02-16T04:26:13.106Z,101184.72
2023-02-16T04:28:40.280Z,101188.22
2023-02-16T04:31:07.977Z,101176.81
2023-02-16T04:33:35.277Z,101183.50
2023-02-16T04:36:02.515Z,101186.31
2023-02-16T04:38:29.707Z,101178.41
2023-02-16T04:40:56.855Z,101184.16
2023-02-16T04:43:24.081Z,101176.97
2023-02-16T04:45:51.286Z,101182.91
2023-02-16T04:48:18.541Z,101178.75
2023-02-16T04:50:45.698Z,101183.56
2023-02-16T04:53:12.946Z,101182.09
2023-02-16T04:55:48.277Z,101187.56
2023-02-16T04:58:17.234Z,101187.91
2023-02-16T05:00:44.481Z,101187.41
2023-02-16T05:03:11.725Z,101186.47
2023-02-16T05:05:40.556Z,101193.81
2023-02-16T05:08:07.888Z,101188.66
2023-02-16T05:10:35.256Z,101190.47
2023-02-16T05:13:21.400Z,101188.66
2023-02-16T05:15:48.663Z,101190.16
2023-02-16T05:18:15.894Z,101192.06
2023-02-16T05:21:01.883Z,101187.06
2023-02-16T05:23:29.321Z,101190.16
2023-02-16T05:25:56.448Z,101193.28
2023-02-16T05:28:23.897Z,101194.97
2023-02-16T05:30:51.335Z,101188.97
2023-02-16T05:33:18.621Z,101201.06
2023-02-16T05:35:45.876Z,101195.91
2023-02-16T05:38:13.012Z,101196.97
2023-02-16T05:40:40.171Z,101203.28
2023-02-16T05:43:07.315Z,101206.97
2023-02-16T05:45:34.472Z,101203.97
2023-02-16T05:48:01.624Z,101208.03
2023-02-16T05:50:28.766Z,101201.78
2023-02-16T05:52:59.933Z,101213.00
2023-02-16T05:55:27.147Z,101216.53
2023-02-16T05:57:54.306Z,101216.75
2023-02-16T06:00:21.591Z,101216.41
2023-02-16T06:02:48.792Z,101215.84
2023-02-16T06:05:16.096Z,101210.94
2023-02-16T06:07:43.532Z,101222.81
2023-02-16T06:10:11.025Z,101221.16
2023-02-16T06:12:38.231Z,101226.97
2023-02-16T06:15:05.550Z,101230.06
2023-02-16T06:17:32.700Z,101232.63
2023-02-16T06:19:59.823Z,101236.69
2023-02-16T06:22:26.949Z,101245.25
2023-02-16T06:24:54.147Z,101242.13
2023-02-16T06:27:21.413Z,101250.91
2023-02-16T06:29:48.747Z,101259.56
2023-02-16T06:32:15.967Z,101263.31
2023-02-16T06:34:43.213Z,101261.00
2023-02-16T06:37:10.348Z,101254.09
2023-02-16T06:39:37.524Z,101255.75
2023-02-16T06:42:04.909Z,101263.25
2023-02-16T06:44:32.118Z,101268.75
2023-02-16T06:46:59.405Z,101271.56
2023-02-16T06:49:27.855Z,101269.31
2023-02-16T06:51:55.333Z,101272.72
2023-02-16T06:54:22.639Z,101274.69
2023-02-16T06:56:49.842Z,101266.72
2023-02-16T06:59:17.017Z,101269.19
2023-02-16T07:01:45.438Z,101274.25
2023-02-16T07:04:12.775Z,101273.19
2023-02-16T07:06:41.199Z,101276.44
2023-02-16T07:09:10.568Z,101273.09
2023-02-16T07:11:38.708Z,101280.38
2023-02-16T07:14:05.936Z,101285.16
2023-02-16T07:16:33.173Z,101277.28
2023-02-16T07:19:00.445Z,101277.63
2023-02-16T07:21:27.834Z,101272.25
2023-02-16T07:23:54.957Z,101264.88
2023-02-16T07:26:22.159Z,101271.94
2023-02-16T07:28:49.429Z,101269.22
2023-02-16T07:31:17.242Z,101264.69
2023-02-16T07:33:45.104Z,101268.69
2023-02-16T07:36:13.889Z,101276.91
2023-02-16T07:38:41.966Z,101268.69
2023-02-16T07:41:10.481Z,101277.09
2023-02-16T07:43:39.224Z,101274.81
2023-02-16T07:46:06.597Z,101273.47
2023-02-16T07:48:34.243Z,101269.66
2023-02-16T07:51:02.087Z,101277.31
2023-02-16T07:53:29.653Z,101276.09
2023-02-16T07:55:57.146Z,101282.81
2023-02-16T07:58:27.332Z,101281.00
2023-02-16T08:01:11.169Z,101286.81
2023-02-16T08:03:39.128Z,101285.56
2023-02-16T08:06:07.864Z,101294.09
2023-02-16T08:08:38.472Z,101288.97
2023-02-16T08:11:19.894Z,101300.53
2023-02-16T08:13:48.011Z,101295.38
2023-02-16T08:16:21.393Z,101298.56
2023-02-16T08:18:50.684Z,101297.97
2023-02-16T08:21:23.551Z,101294.75
2023-02-16T08:24:00.907Z,101296.88
2023-02-16T08:26:37.399Z,101294.06
2023-02-16T08:29:07.060Z,101296.72
2023-02-16T08:31:38.016Z,101297.09
2023-02-16T08:34:06.191Z,101304.75
2023-02-16T08:36:38.197Z,101308.25
2023-02-16T08:39:18.960Z,101308.06
2023-02-16T08:41:48.229Z,101306.91
2023-02-16T08:44:18.659Z,101297.16
2023-02-16T08:46:49.085Z,101303.38
2023-02-16T08:49:19.134Z,101306.59
2023-02-16T08:51:52.094Z,101310.81
2023-02-16T08:54:30.583Z,101304.13
2023-02-16T08:56:59.809Z,101308.53
2023-02-16T08:59:28.875Z,101294.47
2023-02-16T09:01:58.212Z,101306.56
2023-02-16T09:04:29.017Z,101298.31
2023-02-16T09:06:58.626Z,101302.19
2023-02-16T09:09:27.686Z,101297.28
2023-02-16T09:11:55.235Z,101299.75
2023-02-16T09:14:23.030Z,101298.91
2023-02-16T09:16:50.434Z,101298.97
2023-02-16T09:19:20.943Z,101317.13
2023-02-16T09:21:50.815Z,101310.03
2023-02-16T09:24:18.230Z,101309.72
2023-02-16T09:26:45.459Z,101313.06
2023-02-16T09:29:14.750Z,101315.34
2023-02-16T09:31:44.231Z,101314.13
2023-02-16T09:34:23.516Z,101311.75
2023-02-16T09:36:51.335Z,101307.78
2023-02-16T09:39:19.331Z,101316.09
2023-02-16T09:42:56.003Z,101301.91
2023-02-16T09:45:25.309Z,101294.16
2023-02-16T09:47:55.131Z,101300.97
2023-02-16T09:50:53.667Z,101299.97
2023-02-16T09:53:41.225Z,101296.91
2023-02-16T09:56:33.057Z,101288.66
2023-02-16T09:59:14.730Z,101292.38
2023-02-16T10:01:59.483Z,101286.31
2023-02-16T10:05:20.355Z,101286.19
2023-02-16T10:08:38.811Z,101290.00
2023-02-16T10:11:46.866Z,101290.09
2023-02-16T10:14:36.938Z,101294.19
2023-02-16T10:17:15.918Z,101293.84
2023-02-16T10:19:55.242Z,101290.63
2023-02-16T10:22:39.705Z,101292.97
2023-02-16T10:25:22.044Z,101297.13
2023-02-16T10:28:41.545Z,101294.00
2023-02-16T10:31:43.258Z,101291.91
2023-02-16T10:34:36.205Z,101305.22
2023-02-16T10:37:42.586Z,101296.53
2023-02-16T10:40:27.703Z,101294.50
2023-02-16T10:43:21.598Z,101291.16
2023-02-16T10:45:59.079Z,101284.31
2023-02-16T10:48:27.193Z,101279.06
2023-02-16T10:51:09.272Z,101275.22
2023-02-16T10:54:01.202Z,101277.09
2023-02-16T10:56:52.261Z,101274.47
2023-02-16T10:59:23.056Z,101279.28
2023-02-16T11:02:00.765Z,101271.25
2023-02-16T11:04:42.587Z,101266.44
2023-02-16T11:07:20.859Z,101273.03
2023-02-16T11:09:55.464Z,101260.13
2023-02-16T11:12:38.920Z,101269.44
2023-02-16T11:15:16.485Z,101263.13
2023-02-16T11:18:08.009Z,101271.03
2023-02-16T11:20:47.646Z,101258.31
2023-02-16T11:23:17.815Z,101253.53
2023-02-16T11:26:24.015Z,101247.56
2023-02-16T11:28:53.059Z,101233.72
2023-02-16T11:31:39.356Z,101244.84
2023-02-16T11:34:32.523Z,101236.81
2023-02-16T11:37:32.355Z,101235.44
2023-02-16T11:40:19.875Z,101231.72
2023-02-16T11:42:57.688Z,101229.47
2023-02-16T11:45:35.201Z,101231.50
2023-02-16T11:48:13.978Z,101217.16
2023-02-16T11:51:07.859Z,101215.56
2023-02-16T11:53:42.557Z,101219.19
2023-02-16T11:56:29.497Z,101208.34
2023-02-16T11:59:21.002Z,101202.31
2023-02-16T12:02:36.676Z,101203.34
2023-02-16T12:05:32.455Z,101205.94
2023-02-16T12:08:41.464Z,101203.34
2023-02-16T12:11:32.397Z,101197.75
2023-02-16T12:14:23.024Z,101183.03
2023-02-16T12:17:05.009Z,101191.03
2023-02-16T12:19:44.295Z,101188.09
2023-02-16T12:22:38.492Z,101186.66
2023-02-16T12:25:56.453Z,101182.28
2023-02-16T12:28:57.908Z,101177.53
2023-02-16T12:32:11.505Z,101172.59
2023-02-16T12:34:52.360Z,101171.72
2023-02-16T12:37:47.702Z,101169.03
2023-02-16T12:40:51.958Z,101162.22
2023-02-16T12:43:42.024Z,101165.31
2023-02-16T12:46:48.848Z,101159.13
2023-02-16T12:49:24.577Z,101158.13
2023-02-16T12:52:12.112Z,101148.03
2023-02-16T12:54:54.030Z,101148.97
2023-02-16T12:57:26.399Z,101143.00
2023-02-16T13:00:16.856Z,101141.34
2023-02-16T13:03:18.724Z,101148.09
2023-02-16T13:05:57.452Z,101149.59
2023-02-16T13:09:04.557Z,101136.53
2023-02-16T13:12:04.381Z,101138.59
2023-02-16T13:14:41.841Z,101126.47
2023-02-16T13:17:26.810Z,101129.22
2023-02-16T13:19:53.965Z,101121.97
2023-02-16T13:23:07.520Z,101111.53
2023-02-16T13:26:14.687Z,101110.25
2023-02-16T13:29:28.969Z,101107.81
2023-02-16T13:32:45.306Z,101103.38
2023-02-16T13:35:33.478Z,101101.25
2023-02-16T13:39:04.155Z,101098.13
2023-02-16T13:42:17.413Z,101093.38
2023-02-16T13:44:55.950Z,101091.72
2023-02-16T13:47:38.993Z,101091.78
2023-02-16T13:50:32.213Z,101093.66
2023-02-16T13:53:20.957Z,101089.31
2023-02-16T13:55:52.601Z,101098.38
2023-02-16T13:58:19.670Z,101098.53
2023-02-16T14:00:49.958Z,101094.16
2023-02-16T14:03:22.913Z,101091.94
2023-02-16T14:05:53.715Z,101086.94
2023-02-16T14:08:31.740Z,101088.06
2023-02-16T14:11:10.853Z,101090.81
2023-02-16T14:13:38.923Z,101086.41
2023-02-16T14:16:18.008Z,101088.97
2023-02-16T14:19:25.652Z,101085.72
2023-02-16T14:21:53.499Z,101079.44
2023-02-16T14:24:37.657Z,101074.16
2023-02-16T14:27:13.216Z,101072.63
2023-02-16T14:29:59.631Z,101069.81
2023-02-16T14:32:38.469Z,101068.19
2023-02-16T14:35:22.040Z,101071.31
2023-02-16T14:37:59.901Z,101068.44
2023-02-16T14:40:36.144Z,101076.28
2023-02-16T14:43:39.288Z,101067.81
2023-02-16T14:46:18.240Z,101071.50
2023-02-16T14:49:30.630Z,101076.47
2023-02-16T14:52:37.760Z,101065.22
2023-02-16T14:55:20.075Z,101076.03
2023-02-16T14:57:56.398Z,101062.06
2023-02-16T15:00:58.062Z,101060.34
2023-02-16T15:03:39.168Z,101063.81
2023-02-16T15:06:07.614Z,101057.78
2023-02-16T15:08:40.130Z,101061.59
2023-02-16T15:11:58.376Z,101057.88
2023-02-16T15:14:27.142Z,101054.56
2023-02-16T15:16:57.537Z,101060.63
2023-02-16T15:19:30.827Z,101058.66
2023-02-16T15:22:19.971Z,101055.31
2023-02-16T15:25:16.761Z,101061.78
2023-02-16T15:28:11.667Z,101054.94
2023-02-16T15:31:00.334Z,101061.44
2023-02-16T15:33:43.307Z,101053.16
2023-02-16T15:36:16.224Z,101047.22
2023-02-16T15:38:59.896Z,101047.75
2023-02-16T15:41:34.027Z,101050.72
2023-02-16T15:44:03.533Z,101045.81
2023-02-16T15:46:42.025Z,101050.72
2023-02-16T15:49:26.640Z,101044.59
2023-02-16T15:51:57.593Z,101049.84
2023-02-16T15:54:32.201Z,101054.41
2023-02-16T15:57:04.443Z,101050.66
2023-02-16T15:59:47.479Z,101052.84
2023-02-16T16:02:22.850Z,101047.75
2023-02-16T16:04:55.572Z,101050.25
2023-02-16T16:07:40.031Z,101051.59
2023-02-16T16:10:26.918Z,101059.22
2023-02-16T16:13:03.112Z,101054.22
2023-02-16T16:15:37.613Z,101054.63
2023-02-16T16:18:06.077Z,101059.22
2023-02-16T16:20:39.452Z,101050.34
2023-02-16T16:23:27.093Z,101061.63
2023-02-16T16:25:55.240Z,101063.03
2023-02-16T16:28:28.430Z,101070.22
2023-02-16T16:31:31.604Z,101069.88
2023-02-16T16:34:10.818Z,101066.69
2023-02-16T16:36:56.287Z,101073.09
2023-02-16T16:39:35.145Z,101078.75
2023-02-16T16:42:22.696Z,101083.66
2023-02-16T16:44:59.495Z,101091.38
2023-02-16T16:47:40.533Z,101083.47
2023-02-16T16:50:35.734Z,101095.19
2023-02-16T16:53:30.203Z,101101.00
2023-02-16T16:55:58.477Z,101100.28
2023-02-16T16:58:26.376Z,101103.81
2023-02-16T17:00:53.519Z,101103.22
2023-02-16T17:03:20.756Z,101101.16
2023-02-16T17:05:48.038Z,101109.28
2023-02-16T17:08:15.173Z,101101.50
2023-02-16T17:10:42.863Z,101106.00
2023-02-16T17:13:19.154Z,101114.41
2023-02-16T17:16:21.922Z,101115.19
2023-02-16T17:18:49.186Z,101113.63
2023-02-16T17:21:16.991Z,101118.81
2023-02-16T17:23:52.544Z,101125.34
2023-02-16T17:26:22.529Z,101126.03
2023-02-16T17:28:50.238Z,101130.88
2023-02-16T17:31:17.588Z,101129.03
2023-02-16T17:33:44.999Z,101137.34
2023-02-16T17:36:15.782Z,101129.97
2023-02-16T17:38:44.356Z,101136.53
2023-02-16T17:41:24.459Z,101141.09
2023-02-16T17:43:52.096Z,101141.69
2023-02-16T17:46:21.428Z,101144.91
2023-02-16T17:48:55.080Z,101145.50
2023-02-16T17:51:25.461Z,101146.81
2023-02-16T17:53:52.857Z,101143.69
2023-02-16T17:56:23.951Z,101147.13
2023-02-16T17:58:51.914Z,101147.41
2023-02-16T18:01:21.136Z,101144.69
2023-02-16T18:03:48.733Z,101146.28
2023-02-16T18:06:20.775Z,101151.53
2023-02-16T18:08:48.252Z,101166.34
2023-02-16T18:11:15.436Z,101167.31
2023-02-16T18:13:43.256Z,101168.50
2023-02-16T18:16:18.767Z,101169.50
2023-02-16T18:18:46.172Z,101180.81
2023-02-16T18:21:13.816Z,101181.25
2023-02-16T18:23:41.051Z,101189.28
2023-02-16T18:26:08.290Z,101191.03
2023-02-16T18:28:35.924Z,101198.34
2023-02-16T18:31:07.380Z,101193.44
2023-02-16T18:33:35.106Z,101209.84
2023-02-16T18:36:03.207Z,101220.34
2023-02-16T18:38:30.844Z,101206.91
2023-02-16T18:40:59.409Z,101208.25
2023-02-16T18:43:26.604Z,101208.25
2023-02-16T18:45:55.859Z,101214.22
2023-02-16T18:48:23.729Z,101218.66
2023-02-16T18:50:52.014Z,101219.72
2023-02-16T18:53:19.165Z,101224.97
2023-02-16T18:55:46.385Z,101220.84
2023-02-16T18:58:14.866Z,101223.38
2023-02-16T19:00:43.249Z,101220.78
2023-02-16T19:03:10.622Z,101222.59
2023-02-16T19:05:37.866Z,101220.66
2023-02-16T19:08:05.400Z,101223.13
2023-02-16T19:10:33.464Z,101230.78
2023-02-16T19:13:02.113Z,101236.00
2023-02-16T19:15:29.466Z,101242.47
2023-02-16T19:17:56.734Z,101249.72
2023-02-16T19:20:24.265Z,101250.09
2023-02-16T19:22:52.199Z,101247.25
2023-02-16T19:25:20.193Z,101243.50
2023-02-16T19:27:48.014Z,101257.69
2023-02-16T19:30:15.634Z,101249.84
2023-02-16T19:32:42.936Z,101257.00
2023-02-16T19:35:12.052Z,101255.97
2023-02-16T19:37:39.653Z,101271.28
2023-02-16T19:40:10.989Z,101266.28
2023-02-16T19:42:38.983Z,101271.22
2023-02-16T19:45:08.041Z,101269.25
2023-02-16T19:47:35.362Z,101268.09
2023-02-16T19:50:03.769Z,101272.94
2023-02-16T19:52:30.931Z,101274.84
2023-02-16T19:54:58.102Z,101271.53
2023-02-16T19:57:25.610Z,101277.19
2023-02-16T19:59:52.783Z,101278.72
2023-02-16T20:02:20.034Z,101274.56
2023-02-16T20:04:47.330Z,101279.41
2023-02-16T20:07:14.742Z,101278.66
2023-02-16T20:09:42.107Z,101279.41
2023-02-16T20:12:09.794Z,101281.09
2023-02-16T20:14:37.048Z,101285.19
2023-02-16T20:17:04.527Z,101276.88
2023-02-16T20:19:31.752Z,101284.38
2023-02-16T20:21:58.890Z,101283.34
2023-02-16T20:24:26.043Z,101279.84
2023-02-16T20:26:53.333Z,101286.75
2023-02-16T20:29:20.993Z,101280.91
2023-02-16T20:31:56.196Z,101292.25
2023-02-16T20:34:26.038Z,101295.25
2023-02-16T20:36:54.250Z,101296.06
2023-02-16T20:39:21.654Z,101298.16
2023-02-16T20:41:49.445Z,101300.75
2023-02-16T20:44:16.704Z,101293.88
2023-02-16T20:46:44.076Z,101291.94
2023-02-16T20:49:13.376Z,101300.25
2023-02-16T20:51:41.341Z,101293.25
2023-02-16T20:54:09.712Z,101304.03
2023-02-16T20:56:36.884Z,101299.06
2023-02-16T20:59:04.805Z,101310.50
2023-02-16T21:01:43.333Z,101307.16
2023-02-16T21:04:11.204Z,101305.31
2023-02-16T21:06:38.509Z,101299.84
2023-02-16T21:09:08.566Z,101301.44
2023-02-16T21:11:37.591Z,101302.31
2023-02-16T21:14:07.634Z,101311.56
2023-02-16T21:16:34.918Z,101309.88
2023-02-16T21:19:07.240Z,101308.16
2023-02-16T21:21:40.824Z,101321.19
2023-02-16T21:24:08.449Z,101317.44
2023-02-16T21:26:35.692Z,101307.69
2023-02-16T21:29:02.876Z,101306.94
2023-02-16T21:31:30.107Z,101306.69
2023-02-16T21:33:57.420Z,101309.31
2023-02-16T21:36:27.462Z,101310.22
2023-02-16T21:38:55.045Z,101304.63
2023-02-16T21:41:29.164Z,101302.28
2023-02-16T21:44:14.067Z,101303.19
2023-02-16T21:46:46.528Z,101306.44
2023-02-16T21:49:19.349Z,101308.03
2023-02-16T21:51:48.504Z,101303.72
2023-02-16T21:54:39.300Z,101295.50
2023-02-16T21:57:06.469Z,101299.16
2023-02-16T21:59:34.362Z,101308.03
2023-02-16T22:02:01.600Z,101315.56
2023-02-16T22:04:28.799Z,101309.06
2023-02-16T22:06:56.140Z,101315.31
2023-02-16T22:09:24.012Z,101312.31
2023-02-16T22:11:51.952Z,101321.03
2023-02-16T22:14:19.734Z,101314.78
2023-02-16T22:16:48.543Z,101302.69
2023-02-16T22:19:19.084Z,101302.78
2023-02-16T22:21:48.667Z,101303.44
2023-02-16T22:24:18.916Z,101298.91
2023-02-16T22:26:49.156Z,101293.44
2023-02-16T22:29:17.823Z,101293.19
2023-02-16T22:31:48.406Z,101295.78
2023-02-16T22:34:19.816Z,101291.88
2023-02-16T22:36:47.879Z,101297.31
2023-02-16T22:39:17.296Z,101293.66
2023-02-16T22:41:44.481Z,101291.84
2023-02-16T22:44:12.463Z,101290.94
2023-02-16T22:46:39.730Z,101297.00
2023-02-16T22:49:06.992Z,101294.66
2023-02-16T22:51:34.332Z,101292.41
2023-02-16T22:54:02.662Z,101295.91
2023-02-16T22:56:32.624Z,101298.19
2023-02-16T22:59:01.783Z,101293.00
2023-02-16T23:01:31.295Z,101298.66
2023-02-16T23:04:01.127Z,101299.19
2023-02-16T23:06:35.789Z,101299.34
2023-02-16T23:09:11.441Z,101306.81
2023-02-16T23:11:38.681Z,101307.53
2023-02-16T23:14:06.729Z,101294.22
2023-02-16T23:16:33.996Z,101306.19
2023-02-16T23:19:01.262Z,101311.19
2023-02-16T23:21:32.386Z,101311.41
2023-02-16T23:24:00.256Z,101315.53
2023-02-16T23:26:31.041Z,101322.63
2023-02-16T23:29:02.262Z,101315.06
2023-02-16T23:31:35.581Z,101317.81
2023-02-16T23:34:05.511Z,101308.47
2023-02-16T23:36:35.924Z,101307.47
2023-02-16T23:39:13.262Z,101305.88
2023-02-16T23:41:41.932Z,101310.22
2023-02-16T23:44:12.431Z,101311.75
2023-02-16T23:46:39.857Z,101317.34
2023-02-16T23:49:07.191Z,101303.94
2023-02-16T23:51:34.325Z,101315.25
2023-02-16T23:54:01.486Z,101313.09
2023-02-16T23:56:29.598Z,101315.25
2023-02-16T23:59:01.485Z,101311.00
